Time;durP1;ratioP1;P1;durP2;ratioP2;P2;SDS_P1;SDS_P2;PMS_P1;PMS_P2;Temp;Humidity;BMP_temperature;BMP_pressure;BME280_temperature;BME280_humidity;BME280_pressure;Samples;Min_cycle;Max_cycle;Signal;HPM_P1;HPM_P2
2024/02/25 00:02:04;;;;;;;2.70;1.47;;;4.40;99.90;;;;;;5050468;28;20112;-77
2024/02/25 00:04:30;;;;;;;2.30;1.50;;;4.40;99.90;;;;;;5049718;28;20413;-77
2024/02/25 00:06:55;;;;;;;4.33;1.20;;;4.30;99.90;;;;;;5050292;28;20118;-77
2024/02/25 00:09:21;;;;;;;4.17;1.10;;;4.40;99.90;;;;;;5049935;28;20022;-77
2024/02/25 00:11:46;;;;;;;4.27;1.37;;;4.40;99.90;;;;;;5050108;28;20029;-77
2024/02/25 00:14:12;;;;;;;2.27;1.10;;;4.40;99.90;;;;;;5049701;28;20033;-76
2024/02/25 00:16:38;;;;;;;1.83;1.00;;;4.50;99.90;;;;;;5050462;28;20425;-77
2024/02/25 00:19:03;;;;;;;1.67;1.07;;;4.50;99.90;;;;;;5050039;28;20382;-77
2024/02/25 00:21:29;;;;;;;3.13;1.07;;;4.60;99.90;;;;;;5049228;28;20467;-77
2024/02/25 00:23:55;;;;;;;1.30;0.80;;;4.70;99.90;;;;;;5034453;28;20044;-77
2024/02/25 00:26:21;;;;;;;1.70;0.97;;;4.70;99.90;;;;;;5049175;28;20108;-77
2024/02/25 00:28:46;;;;;;;1.00;0.80;;;4.80;99.90;;;;;;5034601;28;20028;-77
2024/02/25 00:31:12;;;;;;;3.90;1.00;;;4.80;99.90;;;;;;5049286;28;20029;-76
2024/02/25 00:33:38;;;;;;;1.50;1.00;;;4.90;99.90;;;;;;5050170;28;20083;-77
2024/02/25 00:36:04;;;;;;;1.57;0.63;;;4.90;99.90;;;;;;5049949;28;20025;-77
2024/02/25 00:38:29;;;;;;;2.10;0.80;;;4.90;99.90;;;;;;5049357;28;20144;-77
2024/02/25 00:40:55;;;;;;;2.43;0.80;;;4.90;99.90;;;;;;5049906;28;20033;-77
2024/02/25 00:43:20;;;;;;;2.83;0.70;;;5.00;99.90;;;;;;5049273;28;20033;-77
2024/02/25 00:45:46;;;;;;;3.27;0.80;;;5.00;99.90;;;;;;5033987;28;20050;-77
2024/02/25 00:48:12;;;;;;;1.10;0.93;;;5.00;99.90;;;;;;5049789;28;20025;-76
2024/02/25 00:50:38;;;;;;;1.23;0.70;;;5.10;99.90;;;;;;5049142;28;20032;-76
2024/02/25 00:53:04;;;;;;;1.60;1.03;;;5.00;99.90;;;;;;5049741;28;20029;-76
2024/02/25 00:55:29;;;;;;;2.20;0.77;;;5.00;99.90;;;;;;5048992;28;20030;-76
2024/02/25 00:57:55;;;;;;;2.40;0.70;;;5.00;99.90;;;;;;5049512;28;20029;-77
2024/02/25 01:00:20;;;;;;;1.30;0.70;;;5.00;99.90;;;;;;5033300;28;20041;-77
2024/02/25 01:02:47;;;;;;;1.70;1.00;;;5.00;99.90;;;;;;5049403;28;20112;-77
2024/02/25 01:05:13;;;;;;;3.80;0.80;;;5.00;99.90;;;;;;5049220;28;20026;-76
2024/02/25 01:07:39;;;;;;;1.53;0.80;;;5.00;99.90;;;;;;5049233;28;20025;-77
2024/02/25 01:10:05;;;;;;;1.40;0.70;;;5.00;99.90;;;;;;5033748;28;20036;-77
2024/02/25 01:12:31;;;;;;;1.37;0.63;;;5.00;99.90;;;;;;5048526;28;20068;-77
2024/02/25 01:14:56;;;;;;;2.23;1.13;;;5.10;99.90;;;;;;5049221;28;20060;-77
2024/02/25 01:17:22;;;;;;;1.10;0.70;;;5.10;99.90;;;;;;5032953;28;20026;-77
2024/02/25 01:19:48;;;;;;;1.00;0.70;;;5.10;99.90;;;;;;5033559;28;20033;-77
2024/02/25 01:22:13;;;;;;;2.50;0.60;;;5.10;99.90;;;;;;5033659;28;20029;-77
2024/02/25 01:24:39;;;;;;;1.80;0.67;;;5.20;99.90;;;;;;5048612;28;20029;-77
2024/02/25 01:27:04;;;;;;;0.80;0.43;;;5.20;99.90;;;;;;5049190;28;20021;-77
2024/02/25 01:29:30;;;;;;;3.13;0.50;;;5.20;99.90;;;;;;5032878;28;20029;-77
2024/02/25 01:31:56;;;;;;;0.47;0.40;;;5.20;99.90;;;;;;5033618;28;20025;-77
2024/02/25 01:34:27;;;;;;;1.67;0.30;;;5.20;99.90;;;;;;5032713;28;20049;-76
2024/02/25 01:36:53;;;;;;;1.58;0.43;;;5.30;99.90;;;;;;5048283;28;20033;-77
2024/02/25 01:39:22;;;;;;;0.60;0.30;;;5.30;99.90;;;;;;5048083;28;20025;-75
2024/02/25 01:41:47;;;;;;;1.07;0.40;;;5.30;99.90;;;;;;5033202;28;20128;-76
2024/02/25 01:44:13;;;;;;;1.23;0.40;;;5.30;99.90;;;;;;5032993;28;20573;-77
2024/02/25 01:46:40;;;;;;;0.93;0.40;;;5.30;99.90;;;;;;5048271;28;20022;-77
2024/02/25 01:49:06;;;;;;;0.57;0.40;;;5.30;99.90;;;;;;5033204;28;20028;-77
2024/02/25 01:51:32;;;;;;;1.17;0.47;;;5.30;99.90;;;;;;5047904;28;20029;-77
2024/02/25 01:53:58;;;;;;;0.40;0.40;;;5.40;99.90;;;;;;5033207;28;20025;-77
2024/02/25 01:56:24;;;;;;;0.60;0.50;;;5.40;99.90;;;;;;5047852;28;20467;-77
2024/02/25 01:58:53;;;;;;;0.60;0.40;;;5.30;99.90;;;;;;5048128;28;20099;-77
2024/02/25 02:01:19;;;;;;;0.73;0.40;;;5.40;99.90;;;;;;5032325;28;20119;-76
2024/02/25 02:03:45;;;;;;;0.73;0.40;;;5.40;99.90;;;;;;5048449;28;20483;-77
2024/02/25 02:06:11;;;;;;;0.40;0.40;;;5.50;99.90;;;;;;5032915;28;20473;-77
2024/02/25 02:08:37;;;;;;;0.60;0.60;;;5.50;99.90;;;;;;5047810;28;20121;-77
2024/02/25 02:11:16;;;;;;;1.37;0.57;;;5.40;99.90;;;;;;5048409;28;20064;-77
2024/02/25 02:13:42;;;;;;;0.57;0.40;;;5.30;99.90;;;;;;5047658;28;20033;-77
2024/02/25 02:16:13;;;;;;;1.23;0.57;;;5.20;99.90;;;;;;5048230;28;20524;-77
2024/02/25 02:18:40;;;;;;;0.70;0.50;;;5.10;99.90;;;;;;5047425;28;20039;-77
2024/02/25 02:21:07;;;;;;;1.33;0.60;;;5.00;99.90;;;;;;5032509;28;20072;-77
2024/02/25 02:23:33;;;;;;;2.87;0.97;;;5.10;99.90;;;;;;5047643;28;20083;-77
2024/02/25 02:25:59;;;;;;;5.53;1.40;;;5.10;99.90;;;;;;5032685;28;20104;-77
2024/02/25 02:28:24;;;;;;;3.37;1.83;;;5.10;99.90;;;;;;5032204;28;20026;-77
2024/02/25 02:30:50;;;;;;;4.57;1.97;;;5.10;99.90;;;;;;5032856;28;20040;-77
2024/02/25 02:33:16;;;;;;;3.70;1.90;;;5.10;99.90;;;;;;5048375;28;20116;-77
2024/02/25 02:35:41;;;;;;;3.90;2.33;;;5.10;99.90;;;;;;5032163;28;20119;-77
2024/02/25 02:38:13;;;;;;;4.20;1.87;;;5.10;99.90;;;;;;5032568;28;20026;-77
2024/02/25 02:40:38;;;;;;;4.82;2.00;;;5.10;99.90;;;;;;5047454;28;20092;-77
2024/02/25 02:43:04;;;;;;;2.70;1.70;;;5.10;99.90;;;;;;5047896;28;20502;-77
2024/02/25 02:45:30;;;;;;;3.67;1.53;;;5.20;99.90;;;;;;5031396;28;20076;-77
2024/02/25 02:47:56;;;;;;;3.47;1.50;;;5.10;99.90;;;;;;5033320;28;20022;-77
2024/02/25 02:50:22;;;;;;;3.73;1.40;;;5.20;99.90;;;;;;5035785;28;20477;-76
2024/02/25 02:52:47;;;;;;;5.07;2.07;;;5.10;99.90;;;;;;5051970;28;20546;-77
2024/02/25 02:55:13;;;;;;;6.50;2.00;;;5.00;99.90;;;;;;5036360;28;20104;-77
2024/02/25 02:57:38;;;;;;;2.70;1.80;;;5.00;99.90;;;;;;5035850;28;20026;-77
2024/02/25 03:00:05;;;;;;;3.60;1.87;;;4.90;99.90;;;;;;5036233;28;20037;-77
2024/02/25 03:02:33;;;;;;;3.57;1.83;;;4.70;99.90;;;;;;5050919;28;20032;-77
2024/02/25 03:04:59;;;;;;;4.00;2.07;;;4.60;99.90;;;;;;5051739;28;20056;-77
2024/02/25 03:07:26;;;;;;;3.37;1.70;;;4.60;99.90;;;;;;5051195;28;20444;-77
2024/02/25 03:09:51;;;;;;;3.67;2.07;;;4.60;99.90;;;;;;5051613;28;20033;-77
2024/02/25 03:12:17;;;;;;;3.70;1.90;;;4.40;99.90;;;;;;5051115;28;20414;-77
2024/02/25 03:14:43;;;;;;;4.30;2.10;;;4.40;99.90;;;;;;5035468;28;20084;-77
2024/02/25 03:17:09;;;;;;;3.00;2.67;;;4.30;99.90;;;;;;5051475;28;20033;-77
2024/02/25 03:19:34;;;;;;;5.70;2.30;;;4.40;99.90;;;;;;5050905;28;20052;-77
2024/02/25 03:22:00;;;;;;;6.13;2.37;;;4.30;99.90;;;;;;5035974;28;20101;-77
2024/02/25 03:24:26;;;;;;;5.40;2.10;;;4.30;99.90;;;;;;5050699;28;20079;-76
2024/02/25 03:26:51;;;;;;;5.40;2.27;;;4.20;99.90;;;;;;5035931;28;20025;-78
2024/02/25 03:29:18;;;;;;;8.73;2.17;;;4.20;99.90;;;;;;5051482;28;20048;-78
2024/02/25 03:31:43;;;;;;;3.77;2.30;;;4.30;99.90;;;;;;5050466;28;20029;-76
2024/02/25 03:34:14;;;;;;;5.53;2.30;;;4.20;99.90;;;;;;5035471;28;20420;-77
2024/02/25 03:36:40;;;;;;;5.67;2.27;;;4.20;99.90;;;;;;5050405;28;20029;-77
2024/02/25 03:39:06;;;;;;;3.33;2.13;;;4.30;99.90;;;;;;5050992;28;20107;-76
2024/02/25 03:41:31;;;;;;;4.53;2.10;;;4.30;99.90;;;;;;5034761;28;20101;-76
2024/02/25 03:43:57;;;;;;;4.97;2.10;;;4.30;99.90;;;;;;5050999;28;20025;-77
2024/02/25 03:46:23;;;;;;;3.63;1.90;;;4.40;99.90;;;;;;5050706;28;20123;-76
2024/02/25 03:48:48;;;;;;;4.87;2.17;;;4.40;99.90;;;;;;5035463;28;20030;-76
2024/02/25 03:51:14;;;;;;;5.03;1.93;;;4.50;99.90;;;;;;5035541;28;20037;-76
2024/02/25 03:53:40;;;;;;;4.80;2.20;;;4.60;99.90;;;;;;5034470;28;20072;-77
2024/02/25 03:56:05;;;;;;;7.60;2.27;;;4.50;99.90;;;;;;5050749;28;20083;-76
2024/02/25 03:58:31;;;;;;;4.30;2.13;;;4.30;99.90;;;;;;5050173;28;20029;-76
2024/02/25 04:00:57;;;;;;;4.43;2.00;;;4.20;99.90;;;;;;5049621;28;20033;-77
2024/02/25 04:03:22;;;;;;;4.47;1.90;;;4.30;99.90;;;;;;5035178;28;20032;-77
2024/02/25 04:05:48;;;;;;;3.83;1.73;;;4.30;99.90;;;;;;5049784;28;20364;-77
2024/02/25 04:08:13;;;;;;;3.43;1.90;;;4.30;99.90;;;;;;5050538;28;20032;-76
2024/02/25 04:10:39;;;;;;;2.47;1.63;;;4.20;99.90;;;;;;5053317;28;20060;-76
2024/02/25 04:13:05;;;;;;;2.23;1.40;;;4.20;99.90;;;;;;5054968;28;20029;-76
2024/02/25 04:15:30;;;;;;;2.90;1.60;;;4.20;99.90;;;;;;5053201;28;20040;-77
2024/02/25 04:17:56;;;;;;;3.50;1.50;;;4.10;99.90;;;;;;5053654;28;20467;-77
2024/02/25 04:20:22;;;;;;;2.93;1.33;;;4.10;99.90;;;;;;5053545;28;20159;-76
2024/02/25 04:22:47;;;;;;;2.57;1.63;;;4.10;99.90;;;;;;5052935;28;20382;-77
2024/02/25 04:25:13;;;;;;;3.23;1.50;;;4.10;99.90;;;;;;5053799;28;20035;-76
2024/02/25 04:27:40;;;;;;;1.60;1.20;;;4.10;99.90;;;;;;5053974;28;20044;-77
2024/02/25 04:30:06;;;;;;;3.10;1.30;;;4.10;99.90;;;;;;5053524;28;20114;-77
2024/02/25 04:32:32;;;;;;;3.87;1.57;;;4.20;99.90;;;;;;5053101;28;20029;-77
2024/02/25 04:34:57;;;;;;;3.43;1.07;;;4.20;99.90;;;;;;5053331;28;20028;-77
2024/02/25 04:37:23;;;;;;;2.97;1.10;;;4.30;99.90;;;;;;5053447;28;20462;-77
2024/02/25 04:39:48;;;;;;;2.47;1.30;;;4.40;99.90;;;;;;5052635;28;20025;-77
2024/02/25 04:42:14;;;;;;;2.87;1.30;;;4.40;99.90;;;;;;5053162;28;20087;-77
2024/02/25 04:44:39;;;;;;;2.20;1.23;;;4.40;99.90;;;;;;5052296;28;20049;-76
2024/02/25 04:47:05;;;;;;;3.53;1.10;;;4.40;99.90;;;;;;5053166;28;20025;-77
2024/02/25 04:49:31;;;;;;;3.13;1.50;;;4.40;99.90;;;;;;5052200;28;20033;-77
2024/02/25 04:51:57;;;;;;;2.13;1.23;;;4.30;99.90;;;;;;5054187;28;20112;-77
2024/02/25 04:54:22;;;;;;;2.47;1.30;;;4.40;99.90;;;;;;5052906;28;20433;-76
2024/02/25 04:56:49;;;;;;;1.90;1.50;;;4.40;99.90;;;;;;5053289;28;20040;-77
2024/02/25 04:59:14;;;;;;;2.40;1.70;;;4.50;99.90;;;;;;5053164;28;20025;-77
2024/02/25 05:01:47;;;;;;;3.17;1.90;;;4.60;99.90;;;;;;5053298;28;20048;-77
2024/02/25 05:04:13;;;;;;;3.73;2.00;;;4.70;99.90;;;;;;5052921;28;20021;-76
2024/02/25 05:06:39;;;;;;;3.97;1.70;;;4.70;99.90;;;;;;5053107;28;20036;-76
2024/02/25 05:09:04;;;;;;;4.17;1.90;;;4.70;99.90;;;;;;5052811;28;20375;-76
2024/02/25 05:11:33;;;;;;;3.87;1.80;;;4.70;99.90;;;;;;5051848;28;20025;-76
2024/02/25 05:13:59;;;;;;;4.17;1.80;;;4.70;99.90;;;;;;5053624;28;20055;-77
2024/02/25 05:16:25;;;;;;;3.40;2.00;;;4.80;99.90;;;;;;5053547;28;20033;-76
2024/02/25 05:18:50;;;;;;;3.67;1.93;;;4.80;99.90;;;;;;5051562;28;20033;-76
2024/02/25 05:21:16;;;;;;;4.20;1.90;;;4.90;99.90;;;;;;5052374;28;20033;-76
2024/02/25 05:23:42;;;;;;;3.03;2.13;;;4.90;99.90;;;;;;5051502;28;20057;-77
2024/02/25 05:26:07;;;;;;;4.50;2.90;;;4.90;99.90;;;;;;5052436;28;20111;-77
2024/02/25 05:28:33;;;;;;;2.77;1.67;;;5.00;99.90;;;;;;5051453;28;20032;-76
2024/02/25 05:31:00;;;;;;;4.10;1.80;;;5.00;99.90;;;;;;5053348;28;20036;-77
2024/02/25 05:33:25;;;;;;;3.20;2.00;;;5.00;99.90;;;;;;5052197;28;20025;-77
2024/02/25 05:35:52;;;;;;;3.03;1.70;;;5.10;99.90;;;;;;5052778;28;20025;-77
2024/02/25 05:38:18;;;;;;;3.70;2.00;;;5.10;99.90;;;;;;5053341;28;20021;-76
2024/02/25 05:40:43;;;;;;;2.77;2.07;;;5.10;99.90;;;;;;5051270;28;20040;-76
2024/02/25 05:43:10;;;;;;;4.23;1.90;;;5.10;99.90;;;;;;5051911;28;20467;-76
2024/02/25 05:45:35;;;;;;;3.23;1.80;;;5.00;99.90;;;;;;5052132;28;20072;-76
2024/02/25 05:48:01;;;;;;;3.17;1.60;;;5.10;99.90;;;;;;5052021;28;20032;-76
2024/02/25 05:50:27;;;;;;;5.07;2.20;;;5.10;99.90;;;;;;5052562;28;20029;-76
2024/02/25 05:52:53;;;;;;;3.30;1.80;;;5.10;99.90;;;;;;5051318;28;20032;-76
2024/02/25 05:55:18;;;;;;;4.13;1.80;;;5.10;99.90;;;;;;5051939;28;20029;-76
2024/02/25 05:57:44;;;;;;;3.33;1.97;;;5.20;99.90;;;;;;5052433;28;20025;-76
2024/02/25 06:00:13;;;;;;;3.00;1.77;;;5.20;99.90;;;;;;5052876;28;20067;-76
2024/02/25 06:02:40;;;;;;;4.37;1.97;;;5.20;99.90;;;;;;5051404;28;20029;-76
2024/02/25 06:05:09;;;;;;;2.80;1.50;;;5.10;99.90;;;;;;5051760;28;20049;-76
2024/02/25 06:07:35;;;;;;;2.60;1.70;;;5.10;99.90;;;;;;5052484;28;20027;-76
2024/02/25 06:10:01;;;;;;;2.73;1.70;;;5.20;99.90;;;;;;5051827;28;20124;-77
2024/02/25 06:12:26;;;;;;;4.00;1.57;;;5.20;99.90;;;;;;5051703;28;20484;-76
2024/02/25 06:14:52;;;;;;;2.87;1.87;;;5.20;99.90;;;;;;5052184;28;20398;-77
2024/02/25 06:17:17;;;;;;;4.77;1.80;;;5.20;99.90;;;;;;5052851;28;20065;-76
2024/02/25 06:19:43;;;;;;;2.70;1.47;;;5.10;99.90;;;;;;5052122;28;20451;-77
2024/02/25 06:22:08;;;;;;;2.97;1.87;;;5.10;99.90;;;;;;5052690;28;20025;-77
2024/02/25 06:24:34;;;;;;;2.87;1.80;;;5.10;99.90;;;;;;5055049;28;20029;-76
2024/02/25 06:26:59;;;;;;;2.93;1.70;;;5.00;99.90;;;;;;5055721;28;20025;-77
2024/02/25 06:29:25;;;;;;;3.33;1.63;;;5.00;99.90;;;;;;5055993;28;20096;-76
2024/02/25 06:31:52;;;;;;;2.53;1.53;;;5.00;99.90;;;;;;5054891;28;20029;-76
2024/02/25 06:34:17;;;;;;;3.87;1.90;;;5.00;99.90;;;;;;5055698;28;20454;-77
2024/02/25 06:36:43;;;;;;;3.30;1.73;;;5.00;99.90;;;;;;5055931;28;20029;-75
2024/02/25 06:39:10;;;;;;;2.30;1.53;;;5.00;99.90;;;;;;5055528;28;20105;-76
2024/02/25 06:41:36;;;;;;;3.40;1.73;;;5.00;99.90;;;;;;5054450;28;20547;-75
2024/02/25 06:44:01;;;;;;;2.80;1.70;;;5.00;99.90;;;;;;5055546;28;20037;-75
2024/02/25 06:46:27;;;;;;;3.13;1.80;;;5.00;99.90;;;;;;5055289;28;20053;-76
2024/02/25 06:48:52;;;;;;;4.97;2.03;;;4.90;99.90;;;;;;5055807;28;20029;-76
2024/02/25 06:51:22;;;;;;;3.30;2.00;;;4.90;99.90;;;;;;5055187;28;20035;-76
2024/02/25 06:53:48;;;;;;;4.27;1.70;;;4.80;99.90;;;;;;5055805;28;20108;-76
2024/02/25 06:56:15;;;;;;;3.00;1.87;;;4.80;99.90;;;;;;5055316;28;20105;-75
2024/02/25 06:58:41;;;;;;;2.10;1.63;;;4.90;99.90;;;;;;5054393;28;20037;-75
2024/02/25 07:01:07;;;;;;;3.33;2.03;;;4.90;99.90;;;;;;5054016;28;20082;-76
2024/02/25 07:03:32;;;;;;;3.97;1.67;;;4.80;99.90;;;;;;5054941;28;20036;-76
2024/02/25 07:05:58;;;;;;;2.73;1.60;;;4.90;99.90;;;;;;5052613;28;20021;-77
2024/02/25 07:08:24;;;;;;;4.47;2.37;;;4.90;99.90;;;;;;5054843;28;20035;-76
2024/02/25 07:10:50;;;;;;;3.37;1.47;;;5.00;99.90;;;;;;5053638;28;20351;-76
2024/02/25 07:13:16;;;;;;;3.67;1.57;;;5.00;99.90;;;;;;5054858;28;20032;-76
2024/02/25 07:15:41;;;;;;;2.63;1.30;;;5.00;99.90;;;;;;5053086;28;20124;-77
2024/02/25 07:18:07;;;;;;;2.83;1.50;;;5.00;99.90;;;;;;5053819;28;20097;-76
2024/02/25 07:20:33;;;;;;;2.17;1.50;;;5.00;99.90;;;;;;5055058;28;20033;-77
2024/02/25 07:22:58;;;;;;;1.93;1.20;;;5.00;99.90;;;;;;5053445;28;20440;-76
2024/02/25 07:25:24;;;;;;;2.40;1.30;;;5.10;99.90;;;;;;5055517;28;20025;-77
2024/02/25 07:27:49;;;;;;;3.30;1.40;;;5.00;99.90;;;;;;5053574;28;20074;-77
2024/02/25 07:30:16;;;;;;;2.23;1.43;;;5.00;99.90;;;;;;5054747;28;20488;-76
2024/02/25 07:32:42;;;;;;;2.60;1.10;;;5.00;99.90;;;;;;5054714;28;20343;-76
2024/02/25 07:35:08;;;;;;;3.33;1.23;;;5.00;99.90;;;;;;5052482;28;20098;-76
2024/02/25 07:37:34;;;;;;;2.77;1.10;;;5.00;99.90;;;;;;5053893;28;20470;-77
2024/02/25 07:40:00;;;;;;;3.17;1.30;;;5.00;99.90;;;;;;5054556;28;20037;-76
2024/02/25 07:42:25;;;;;;;1.33;1.10;;;5.10;99.90;;;;;;5053696;28;20120;-77
2024/02/25 07:44:51;;;;;;;3.17;1.40;;;5.10;99.90;;;;;;5053137;28;20072;-76
2024/02/25 07:47:17;;;;;;;1.90;1.20;;;5.10;99.90;;;;;;5053806;28;20063;-76
2024/02/25 07:49:43;;;;;;;2.60;1.20;;;5.10;99.90;;;;;;5054442;28;20025;-75
2024/02/25 07:52:12;;;;;;;2.83;1.50;;;5.20;99.90;;;;;;5053765;28;20476;-76
2024/02/25 07:54:37;;;;;;;2.50;1.43;;;5.20;99.90;;;;;;5054335;28;20053;-75
2024/02/25 07:57:03;;;;;;;2.10;1.37;;;5.30;99.90;;;;;;5054742;28;20064;-76
2024/02/25 07:59:29;;;;;;;3.40;1.40;;;5.40;99.90;;;;;;5053550;28;20413;-76
2024/02/25 08:01:58;;;;;;;1.93;1.17;;;5.40;99.90;;;;;;5052731;28;20367;-75
2024/02/25 08:04:23;;;;;;;1.97;1.40;;;5.50;99.90;;;;;;5053185;28;20029;-76
2024/02/25 08:06:49;;;;;;;1.70;1.30;;;5.50;99.90;;;;;;5052817;28;20027;-76
2024/02/25 08:09:14;;;;;;;2.70;1.20;;;5.60;99.90;;;;;;5053916;28;20033;-76
2024/02/25 08:11:40;;;;;;;2.10;1.00;;;5.60;99.90;;;;;;5052824;28;20021;-76
2024/02/25 08:14:06;;;;;;;3.13;1.10;;;5.70;99.90;;;;;;5053450;28;20033;-76
2024/02/25 08:16:33;;;;;;;1.10;0.80;;;5.70;99.90;;;;;;5054286;28;20035;-75
2024/02/25 08:18:58;;;;;;;1.30;0.73;;;5.80;99.90;;;;;;5052329;28;20061;-77
2024/02/25 08:21:24;;;;;;;1.63;0.80;;;5.90;99.90;;;;;;5054262;28;20430;-76
2024/02/25 08:23:50;;;;;;;1.30;0.80;;;6.00;99.90;;;;;;5052462;28;20071;-76
2024/02/25 08:26:15;;;;;;;0.73;0.60;;;6.10;99.90;;;;;;5052623;28;20052;-76
2024/02/25 08:28:42;;;;;;;0.53;0.53;;;6.20;99.90;;;;;;5053853;28;20029;-76
2024/02/25 08:31:07;;;;;;;0.57;0.33;;;6.30;99.90;;;;;;5053591;28;20061;-76
2024/02/25 08:33:33;;;;;;;0.73;0.30;;;6.40;99.90;;;;;;5053849;28;20446;-76
2024/02/25 08:35:59;;;;;;;0.20;0.20;;;6.50;99.90;;;;;;5068919;28;20390;-76
2024/02/25 08:38:25;;;;;;;0.30;0.20;;;6.50;99.90;;;;;;5053868;28;20025;-76
2024/02/25 08:40:50;;;;;;;0.70;0.30;;;6.60;99.90;;;;;;5052145;28;20397;-76
2024/02/25 08:43:16;;;;;;;1.07;0.30;;;6.60;99.90;;;;;;5053247;28;20024;-76
2024/02/25 08:45:42;;;;;;;0.40;0.20;;;6.80;99.90;;;;;;5051947;28;20063;-76
2024/02/25 08:48:07;;;;;;;0.40;0.20;;;6.80;99.90;;;;;;5068797;28;20029;-75
2024/02/25 08:50:33;;;;;;;0.30;0.20;;;6.90;99.90;;;;;;5052460;28;20025;-76
2024/02/25 08:52:58;;;;;;;0.40;0.20;;;6.90;99.90;;;;;;5053295;28;20056;-77
2024/02/25 08:55:24;;;;;;;0.22;0.20;;;7.00;99.90;;;;;;5052879;28;20028;-76
2024/02/25 08:57:50;;;;;;;0.30;0.22;;;7.10;99.90;;;;;;5068365;28;20398;-76
2024/02/25 09:00:16;;;;;;;0.30;0.20;;;7.10;99.90;;;;;;5053162;28;20441;-76
2024/02/25 09:02:41;;;;;;;0.30;0.22;;;7.20;99.90;;;;;;5051107;28;20032;-76
2024/02/25 09:05:07;;;;;;;0.33;0.20;;;7.20;99.90;;;;;;5051914;28;20049;-76
2024/02/25 09:07:36;;;;;;;0.40;0.30;;;7.20;99.90;;;;;;5052386;28;20520;-76
2024/02/25 09:10:02;;;;;;;0.23;0.20;;;7.30;99.90;;;;;;5052548;28;20032;-76
2024/02/25 09:12:28;;;;;;;0.65;0.45;;;7.40;99.90;;;;;;5053107;28;20029;-77
2024/02/25 09:14:53;;;;;;;0.30;0.28;;;7.40;99.90;;;;;;5052878;28;20036;-76
2024/02/25 09:17:19;;;;;;;0.20;0.20;;;7.50;99.90;;;;;;5052135;28;20025;-77
2024/02/25 09:19:45;;;;;;;0.65;0.22;;;7.50;99.90;;;;;;5051448;28;20455;-76
2024/02/25 09:22:10;;;;;;;0.80;0.17;;;7.60;99.90;;;;;;5052790;28;20029;-77
2024/02/25 09:24:36;;;;;;;1.13;0.28;;;7.70;99.90;;;;;;5051694;28;20036;-76
2024/02/25 09:27:03;;;;;;;0.10;0.10;;;7.70;99.90;;;;;;5051373;28;20068;-77
2024/02/25 09:29:28;;;;;;;1.10;0.20;;;7.70;99.90;;;;;;5052922;28;20104;-77
2024/02/25 09:31:54;;;;;;;0.38;0.30;;;7.80;99.90;;;;;;5051297;28;20115;-76
2024/02/25 09:34:20;;;;;;;0.77;0.30;;;7.80;99.90;;;;;;5051805;28;20028;-77
2024/02/25 09:36:45;;;;;;;0.20;0.20;;;7.90;99.90;;;;;;5051191;28;20423;-76
2024/02/25 09:39:12;;;;;;;0.43;0.30;;;7.90;99.90;;;;;;5051834;28;20029;-76
2024/02/25 09:41:42;;;;;;;1.65;0.30;;;8.00;99.90;;;;;;5050634;28;20131;-74
2024/02/25 09:44:28;;;;;;;0.20;0.20;;;8.10;99.90;;;;;;5051956;28;20035;-77
2024/02/25 09:46:55;;;;;;;0.10;0.10;;;8.20;99.90;;;;;;5051705;28;20107;-77
2024/02/25 09:49:24;;;;;;;1.42;0.10;;;8.20;99.90;;;;;;5051374;28;20124;-77
2024/02/25 09:51:50;;;;;;;0.20;0.20;;;8.30;99.90;;;;;;5050584;28;20033;-77
2024/02/25 09:54:16;;;;;;;0.17;0.10;;;8.40;99.90;;;;;;5051252;28;20032;-77
2024/02/25 09:56:48;;;;;;;1.15;0.20;;;8.60;99.90;;;;;;5051683;28;20029;-76
2024/02/25 09:59:14;;;;;;;0.50;0.20;;;8.60;99.90;;;;;;5051311;28;20067;-78
2024/02/25 10:01:43;;;;;;;1.50;0.20;;;8.60;99.90;;;;;;5050423;28;20040;-77
2024/02/25 10:04:10;;;;;;;0.63;0.10;;;8.60;99.90;;;;;;5052163;28;20105;-76
2024/02/25 10:06:37;;;;;;;0.80;0.20;;;8.70;99.90;;;;;;5050842;28;20032;-76
2024/02/25 10:09:02;;;;;;;0.50;0.22;;;8.70;99.90;;;;;;5052294;28;20052;-76
2024/02/25 10:11:28;;;;;;;0.52;0.28;;;8.80;99.90;;;;;;5051302;28;20056;-76
2024/02/25 10:13:56;;;;;;;0.40;0.17;;;8.80;99.90;;;;;;5051559;28;20067;-75
2024/02/25 10:16:22;;;;;;;0.82;0.22;;;8.80;99.90;;;;;;5052429;28;20029;-76
2024/02/25 10:18:50;;;;;;;1.02;0.35;;;8.80;99.90;;;;;;5050311;28;20489;-76
2024/02/25 10:21:18;;;;;;;0.73;0.30;;;8.80;99.90;;;;;;5050793;28;20068;-77
2024/02/25 10:23:43;;;;;;;0.85;0.30;;;8.80;99.90;;;;;;5050401;28;20106;-75
2024/02/25 10:26:18;;;;;;;2.08;0.47;;;8.90;99.90;;;;;;5051791;28;20458;-76
2024/02/25 10:28:44;;;;;;;0.80;0.28;;;8.90;99.90;;;;;;5051332;28;20025;-77
2024/02/25 10:31:12;;;;;;;1.85;0.30;;;9.00;99.90;;;;;;5050511;28;20040;-75
2024/02/25 10:33:38;;;;;;;0.32;0.20;;;9.00;99.90;;;;;;5051559;28;20462;-75
2024/02/25 10:36:13;;;;;;;0.20;0.20;;;9.00;99.90;;;;;;5051905;28;20032;-76
2024/02/25 10:38:40;;;;;;;0.15;0.13;;;9.00;99.90;;;;;;5050929;28;20061;-75
2024/02/25 10:41:07;;;;;;;0.77;0.40;;;9.00;99.90;;;;;;5051349;28;20509;-80
2024/02/25 10:43:35;;;;;;;0.73;0.20;;;9.00;99.90;;;;;;5051782;28;20462;-77
2024/02/25 10:46:21;;;;;;;0.73;0.30;;;9.10;99.90;;;;;;5050053;28;20513;-77
2024/02/25 10:48:49;;;;;;;0.55;0.20;;;9.10;99.90;;;;;;5050241;28;20025;-76
2024/02/25 10:51:15;;;;;;;1.02;0.20;;;9.10;99.90;;;;;;5051980;28;20033;-76
2024/02/25 10:53:42;;;;;;;0.50;0.30;;;9.20;99.90;;;;;;5051206;28;20029;-76
2024/02/25 10:56:18;;;;;;;0.40;0.20;;;9.10;99.90;;;;;;5051866;28;20052;-76
2024/02/25 10:58:45;;;;;;;3.30;0.77;;;9.10;99.90;;;;;;5050550;28;20047;-76
2024/02/25 11:01:12;;;;;;;0.43;0.25;;;9.10;99.90;;;;;;5050210;28;20033;-76
2024/02/25 11:03:39;;;;;;;0.47;0.20;;;9.20;99.90;;;;;;5050363;28;20035;-76
2024/02/25 11:06:08;;;;;;;0.20;0.20;;;9.30;99.90;;;;;;5050332;28;20025;-75
2024/02/25 11:08:36;;;;;;;1.00;0.20;;;9.30;99.90;;;;;;5051836;28;20070;-76
2024/02/25 11:11:09;;;;;;;0.55;0.20;;;9.50;99.90;;;;;;5053536;28;20036;-76
2024/02/25 11:13:34;;;;;;;0.77;0.13;;;9.70;99.90;;;;;;5053777;28;20040;-76
2024/02/25 11:16:04;;;;;;;0.28;0.10;;;9.90;99.90;;;;;;5054437;28;20037;-76
2024/02/25 11:18:30;;;;;;;0.82;0.35;;;9.90;99.90;;;;;;5053783;28;20052;-76
2024/02/25 11:21:10;;;;;;;0.65;0.20;;;10.00;99.90;;;;;;5054424;28;20466;-76
2024/02/25 11:23:42;;;;;;;0.20;0.20;;;10.00;99.90;;;;;;5054783;28;20037;-76
2024/02/25 11:26:33;;;;;;;0.38;0.30;;;10.20;99.90;;;;;;5054796;28;20473;-76
2024/02/25 11:29:19;;;;;;;0.82;0.20;;;10.20;99.90;;;;;;5053104;28;20021;-75
2024/02/25 11:32:29;;;;;;;0.35;0.20;;;10.20;99.90;;;;;;5054098;28;20025;-76
2024/02/25 11:34:59;;;;;;;0.40;0.30;;;10.20;99.90;;;;;;5069871;28;20025;-76
2024/02/25 11:37:25;;;;;;;0.43;0.30;;;10.20;99.90;;;;;;5053512;28;20420;-76
2024/02/25 11:39:52;;;;;;;0.20;0.20;;;10.30;99.90;;;;;;5052657;28;20035;-76
2024/02/25 11:42:18;;;;;;;0.20;0.20;;;10.50;99.90;;;;;;5052331;28;20444;-76
2024/02/25 11:44:43;;;;;;;0.80;0.30;;;10.60;99.90;;;;;;5052687;28;20136;-76
2024/02/25 11:47:09;;;;;;;1.55;0.13;;;10.60;99.90;;;;;;5054698;28;20106;-76
2024/02/25 11:49:35;;;;;;;0.20;0.20;;;10.70;99.90;;;;;;5052866;28;20037;-76
2024/02/25 11:52:01;;;;;;;0.75;0.20;;;10.90;99.90;;;;;;5066906;28;20029;-76
2024/02/25 11:54:30;;;;;;;0.30;0.20;;;10.70;99.90;;;;;;5034452;28;20425;-76
2024/02/25 11:56:56;;;;;;;0.10;0.10;;;10.60;99.90;;;;;;5032852;28;20116;-77
2024/02/25 11:59:22;;;;;;;0.55;0.40;;;10.60;99.90;;;;;;5038006;28;20109;-76
2024/02/25 12:01:49;;;;;;;0.30;0.20;;;10.50;99.90;;;;;;5052406;28;20497;-76
2024/02/25 12:04:15;;;;;;;0.82;0.13;;;10.50;99.90;;;;;;5053087;28;20051;-76
2024/02/25 12:06:41;;;;;;;0.20;0.20;;;10.60;99.90;;;;;;5053857;28;20093;-76
2024/02/25 12:09:07;;;;;;;0.77;0.55;;;10.80;99.30;;;;;;5054419;28;20458;-77
2024/02/25 12:11:34;;;;;;;0.17;0.10;;;10.80;98.70;;;;;;5052662;28;20035;-76
2024/02/25 12:14:16;;;;;;;1.23;0.20;;;10.80;99.10;;;;;;5051936;28;20044;-77
2024/02/25 12:16:43;;;;;;;0.57;0.25;;;10.90;99.30;;;;;;5052292;28;20029;-75
2024/02/25 12:19:13;;;;;;;0.38;0.20;;;11.00;99.10;;;;;;5052729;28;20044;-76
2024/02/25 12:21:48;;;;;;;0.47;0.20;;;11.10;98.70;;;;;;5051791;28;20029;-76
2024/02/25 12:24:14;;;;;;;0.35;0.20;;;11.20;98.10;;;;;;5052632;28;20029;-75
2024/02/25 12:26:57;;;;;;;0.13;0.10;;;11.20;97.40;;;;;;5052018;28;20032;-75
2024/02/25 12:29:25;;;;;;;2.20;0.47;;;11.30;96.60;;;;;;5052535;28;20039;-76
2024/02/25 12:31:52;;;;;;;0.75;0.30;;;11.30;96.30;;;;;;5052951;28;20044;-76
2024/02/25 12:34:18;;;;;;;0.15;0.10;;;11.40;96.40;;;;;;5052099;28;20031;-76
2024/02/25 12:36:47;;;;;;;0.52;0.32;;;11.20;96.40;;;;;;5052627;28;20025;-75
2024/02/25 12:39:22;;;;;;;0.50;0.32;;;11.10;96.80;;;;;;5052148;28;20025;-76
2024/02/25 12:41:59;;;;;;;0.20;0.20;;;11.20;96.30;;;;;;5051615;28;20155;-76
2024/02/25 12:44:28;;;;;;;0.90;0.50;;;11.20;97.00;;;;;;5051560;28;20175;-75
2024/02/25 12:46:54;;;;;;;0.28;0.20;;;11.20;97.10;;;;;;5051370;28;20029;-76
2024/02/25 12:49:20;;;;;;;0.20;0.20;;;11.10;96.50;;;;;;5052327;28;20025;-75
2024/02/25 12:51:45;;;;;;;0.85;0.10;;;11.20;95.90;;;;;;5051212;28;20036;-75
2024/02/25 12:54:11;;;;;;;0.10;0.10;;;11.10;95.80;;;;;;5053127;28;20029;-76